Time;durP1;ratioP1;P1;durP2;ratioP2;P2;SDS_P1;SDS_P2;PMS_P1;PMS_P2;Temp;Humidity;BMP_temperature;BMP_pressure;BME280_temperature;BME280_humidity;BME280_pressure;Samples;Min_cycle;Max_cycle;Signal;HPM_P1;HPM_P2
2021/12/18 00:00:59;0.00;0.00;0.62;0.00;0.00;0.62;1.47;1.00;;;23.00;30.00;;;;;;2254531;61;20440;-61
2021/12/18 00:03:45;0.00;0.00;0.62;0.00;0.00;0.62;1.60;1.07;;;22.90;30.00;;;;;;2254167;61;20399;-58
2021/12/18 00:06:31;0.00;0.00;0.62;0.00;0.00;0.62;1.80;1.20;;;22.90;30.00;;;;;;2253926;61;20736;-60
2021/12/18 00:09:16;0.00;0.00;0.62;0.00;0.00;0.62;1.70;0.90;;;23.00;30.00;;;;;;2253957;61;20480;-61
2021/12/18 00:12:02;0.00;0.00;0.62;0.00;0.00;0.62;1.93;1.07;;;23.00;30.00;;;;;;2253686;61;20359;-59
2021/12/18 00:14:47;0.00;0.00;0.62;0.00;0.00;0.62;2.37;1.00;;;23.00;30.00;;;;;;2254281;61;20411;-60
2021/12/18 00:17:31;0.00;0.00;0.62;0.00;0.00;0.62;2.17;1.23;;;23.00;30.00;;;;;;2253842;61;20364;-57
2021/12/18 00:20:18;0.00;0.00;0.62;0.00;0.00;0.62;1.80;1.30;;;23.00;30.00;;;;;;2253688;61;20816;-60
2021/12/18 00:23:05;0.00;0.00;0.62;0.00;0.00;0.62;2.03;1.07;;;23.00;30.00;;;;;;2254330;61;20612;-59
2021/12/18 00:25:50;0.00;0.00;0.62;0.00;0.00;0.62;1.90;1.20;;;23.00;30.00;;;;;;2253863;61;20495;-57
2021/12/18 00:28:35;0.00;0.00;0.62;0.00;0.00;0.62;2.50;1.53;;;23.00;30.00;;;;;;2253946;61;20356;-60
2021/12/18 00:31:21;0.00;0.00;0.62;0.00;0.00;0.62;2.53;1.03;;;23.00;30.00;;;;;;2254044;61;20407;-60
2021/12/18 00:34:06;0.00;0.00;0.62;0.00;0.00;0.62;2.10;1.30;;;23.00;30.00;;;;;;2253649;61;20355;-57
2021/12/18 00:36:51;0.00;0.00;0.62;0.00;0.00;0.62;1.27;0.80;;;23.00;30.00;;;;;;2254217;61;20392;-55
2021/12/18 00:39:44;0.00;0.00;0.62;0.00;0.00;0.62;1.30;0.87;;;23.00;30.00;;;;;;2253354;61;20379;-59
2021/12/18 00:42:40;0.00;0.00;0.62;0.00;0.00;0.62;1.30;0.80;;;23.00;30.00;;;;;;2253543;61;20364;-60
2021/12/18 00:45:26;0.00;0.00;0.62;0.00;0.00;0.62;1.60;1.17;;;23.00;30.00;;;;;;2254094;61;20602;-59
2021/12/18 00:48:11;0.00;0.00;0.62;0.00;0.00;0.62;1.50;0.90;;;23.00;30.00;;;;;;2254214;61;20399;-57
2021/12/18 00:50:56;0.00;0.00;0.62;0.00;0.00;0.62;1.80;1.00;;;23.00;30.00;;;;;;2253484;61;20401;-60
2021/12/18 00:53:40;0.00;0.00;0.62;0.00;0.00;0.62;1.60;0.90;;;23.00;30.00;;;;;;2253926;61;20605;-55
2021/12/18 00:56:27;0.00;0.00;0.62;0.00;0.00;0.62;1.63;1.10;;;23.00;30.00;;;;;;2253548;61;20601;-59
2021/12/18 00:59:11;0.00;0.00;0.62;0.00;0.00;0.62;1.50;0.80;;;23.00;30.00;;;;;;2254203;61;20372;-61
2021/12/18 01:01:56;0.00;0.00;0.62;0.00;0.00;0.62;1.73;1.00;;;23.00;30.00;;;;;;2253821;61;20452;-59
2021/12/18 01:04:40;0.00;0.00;0.62;0.00;0.00;0.62;1.47;0.80;;;23.00;30.00;;;;;;2253445;61;20599;-57
2021/12/18 01:07:25;0.00;0.00;0.62;0.00;0.00;0.62;2.50;0.80;;;23.00;30.00;;;;;;2254145;61;20708;-59
2021/12/18 01:13:00;0.00;0.00;0.62;0.00;0.00;0.62;1.60;0.80;;;23.00;30.00;;;;;;2253689;61;20360;-59
2021/12/18 01:15:50;0.00;0.00;0.62;0.00;0.00;0.62;1.40;0.90;;;23.00;30.00;;;;;;2253775;61;20593;-61
2021/12/18 01:24:42;0.00;0.00;0.62;0.00;0.00;0.62;1.87;0.97;;;23.00;30.00;;;;;;2253010;61;20434;-60
2021/12/18 01:27:26;0.00;0.00;0.62;0.00;0.00;0.62;1.40;0.90;;;23.00;30.00;;;;;;2253184;61;20403;-56
2021/12/18 01:30:14;0.00;0.00;0.62;0.00;0.00;0.62;1.50;0.80;;;23.00;30.00;;;;;;2253878;61;20441;-60
2021/12/18 01:32:58;0.00;0.00;0.62;0.00;0.00;0.62;1.40;0.90;;;23.00;30.00;;;;;;2253881;61;20367;-61
2021/12/18 01:35:43;0.00;0.00;0.62;0.00;0.00;0.62;1.47;0.80;;;23.00;30.00;;;;;;2254215;61;20471;-60
2021/12/18 01:38:30;0.00;0.00;0.62;0.00;0.00;0.62;2.17;0.90;;;23.00;30.00;;;;;;2253533;61;20363;-60
2021/12/18 01:41:16;0.00;0.00;0.62;0.00;0.00;0.62;1.47;0.80;;;23.00;30.00;;;;;;2253417;61;20391;-60
2021/12/18 01:51:16;0.00;0.00;0.62;0.00;0.00;0.62;1.50;1.00;;;23.00;30.00;;;;;;2253514;61;20355;-58
2021/12/18 01:53:17;0.00;0.00;0.62;0.00;0.00;0.62;1.40;0.70;;;23.00;30.00;;;;;;2253482;61;20384;-60
2021/12/18 01:56:04;0.00;0.00;0.62;0.00;0.00;0.62;1.30;0.80;;;23.00;30.00;;;;;;2253568;61;20713;-58
2021/12/18 01:58:50;0.00;0.00;0.62;0.00;0.00;0.62;1.70;0.80;;;23.00;30.00;;;;;;2254122;61;20453;-59
2021/12/18 02:01:35;0.00;0.00;0.62;0.00;0.00;0.62;1.33;0.70;;;23.00;30.00;;;;;;2253561;61;20554;-60
2021/12/18 02:04:20;0.00;0.00;0.62;0.00;0.00;0.62;1.90;0.80;;;23.00;30.00;;;;;;2253464;61;20412;-61
2021/12/18 02:07:07;0.00;0.00;0.62;0.00;0.00;0.62;1.40;0.70;;;23.00;30.00;;;;;;2253733;61;20580;-61
2021/12/18 02:10:01;0.00;0.00;0.62;0.00;0.00;0.62;1.30;0.70;;;23.00;30.00;;;;;;2253776;61;20395;-59
2021/12/18 02:13:02;0.00;0.00;0.62;0.00;0.00;0.62;1.40;0.70;;;23.00;30.00;;;;;;2253951;61;20432;-60
2021/12/18 02:21:56;0.00;0.00;0.62;0.00;0.00;0.62;1.40;0.90;;;23.00;30.00;;;;;;2253558;61;20396;-62
2021/12/18 02:24:41;0.00;0.00;0.62;0.00;0.00;0.62;1.20;0.70;;;23.00;30.00;;;;;;2253747;61;20391;-59
2021/12/18 02:27:26;0.00;0.00;0.62;0.00;0.00;0.62;1.40;0.80;;;23.00;30.00;;;;;;2253919;61;20422;-61
2021/12/18 02:30:11;0.00;0.00;0.62;0.00;0.00;0.62;2.70;0.97;;;23.00;30.00;;;;;;2253426;61;20368;-58
2021/12/18 02:32:56;0.00;0.00;0.62;0.00;0.00;0.62;1.57;0.90;;;23.00;30.00;;;;;;2253376;61;20352;-57
2021/12/18 02:35:49;0.00;0.00;0.62;0.00;0.00;0.62;2.20;1.20;;;23.00;29.90;;;;;;2253746;61;20734;-60
2021/12/18 02:41:45;0.00;0.00;0.62;0.00;0.00;0.62;1.63;1.03;;;23.00;29.90;;;;;;2253274;61;20411;-60
2021/12/18 02:44:31;0.00;0.00;0.62;0.00;0.00;0.62;1.70;1.20;;;23.00;29.80;;;;;;2253596;61;20640;-62
2021/12/18 02:47:17;0.00;0.00;0.62;0.00;0.00;0.62;1.80;1.30;;;23.00;29.80;;;;;;2253304;61;20755;-59
2021/12/18 02:50:02;0.00;0.00;0.62;0.00;0.00;0.62;2.23;1.30;;;23.00;29.80;;;;;;2253767;61;20824;-61
2021/12/18 02:52:47;0.00;0.00;0.62;0.00;0.00;0.62;1.70;1.17;;;23.00;29.80;;;;;;2253464;61;20736;-59
2021/12/18 02:55:33;0.00;0.00;0.62;0.00;0.00;0.62;1.80;1.13;;;23.00;29.70;;;;;;2253174;61;20779;-57
2021/12/18 02:58:17;0.00;0.00;0.62;0.00;0.00;0.62;2.23;1.03;;;22.90;29.70;;;;;;2254019;61;20387;-60
2021/12/18 03:01:03;0.00;0.00;0.62;0.00;0.00;0.62;1.73;1.30;;;22.90;29.60;;;;;;2253396;61;20360;-61
2021/12/18 03:03:50;0.00;0.00;0.62;0.00;0.00;0.62;1.40;1.00;;;22.90;29.60;;;;;;2253028;61;20376;-62
2021/12/18 03:06:39;0.00;0.00;0.62;0.00;0.00;0.62;1.60;1.10;;;22.90;29.60;;;;;;2253736;61;20593;-59
2021/12/18 03:18:58;0.00;0.00;0.62;0.00;0.00;0.62;1.70;1.20;;;22.90;29.60;;;;;;2253225;61;20411;-57
2021/12/18 03:24:42;0.00;0.00;0.62;0.00;0.00;0.62;2.13;1.20;;;22.90;29.50;;;;;;2252899;61;20360;-60
2021/12/18 03:27:27;0.00;0.00;0.62;0.00;0.00;0.62;1.83;1.07;;;22.80;29.50;;;;;;2253844;61;20739;-57
2021/12/18 03:30:15;0.00;0.00;0.62;0.00;0.00;0.62;1.60;1.13;;;22.80;29.50;;;;;;2253220;61;20400;-60
2021/12/18 03:33:00;0.00;0.00;0.62;0.00;0.00;0.62;1.53;1.10;;;22.80;29.50;;;;;;2253134;61;20371;-60
2021/12/18 03:35:46;0.00;0.00;0.62;0.00;0.00;0.62;2.37;1.10;;;22.80;29.50;;;;;;2253771;61;20419;-61
2021/12/18 03:38:31;0.00;0.00;0.62;0.00;0.00;0.62;2.00;1.17;;;22.80;29.50;;;;;;2253493;61;20360;-60
2021/12/18 03:41:16;0.00;0.00;0.62;0.00;0.00;0.62;1.60;1.20;;;22.80;29.50;;;;;;2253058;61;20371;-59
2021/12/18 03:44:01;0.00;0.00;0.62;0.00;0.00;0.62;1.60;1.00;;;22.80;29.50;;;;;;2252876;61;20433;-61
2021/12/18 03:46:48;0.00;0.00;0.62;0.00;0.00;0.62;1.70;1.20;;;22.80;29.50;;;;;;2253211;61;20340;-61
2021/12/18 03:49:33;0.00;0.00;0.62;0.00;0.00;0.62;1.60;1.10;;;22.80;29.50;;;;;;2254406;61;20365;-59
2021/12/18 03:52:17;0.00;0.00;0.62;0.00;0.00;0.62;1.77;1.17;;;22.80;29.50;;;;;;2253652;61;20356;-60
2021/12/18 03:55:03;0.00;0.00;0.62;0.00;0.00;0.62;1.60;1.10;;;22.80;29.50;;;;;;2253660;61;20387;-60
2021/12/18 03:57:48;0.00;0.00;0.62;0.00;0.00;0.62;1.87;1.40;;;22.70;29.40;;;;;;2253986;61;20422;-57
2021/12/18 04:00:32;0.00;0.00;0.62;0.00;0.00;0.62;1.90;1.40;;;22.70;29.40;;;;;;2253981;61;20347;-60
2021/12/18 04:03:18;0.00;0.00;0.62;0.00;0.00;0.62;2.03;1.30;;;22.70;29.40;;;;;;2253751;61;20406;-61
2021/12/18 04:06:03;0.00;0.00;0.62;0.00;0.00;0.62;2.10;1.30;;;22.70;29.40;;;;;;2253917;61;20613;-62
2021/12/18 04:08:48;0.00;0.00;0.62;0.00;0.00;0.62;1.90;1.27;;;22.70;29.40;;;;;;2253727;61;20746;-59
2021/12/18 04:11:32;0.00;0.00;0.62;0.00;0.00;0.62;1.90;1.30;;;22.70;29.40;;;;;;2254235;61;20399;-61
2021/12/18 04:14:18;0.00;0.00;0.62;0.00;0.00;0.62;1.93;1.47;;;22.60;29.30;;;;;;2253587;61;20379;-56
2021/12/18 04:17:03;0.00;0.00;0.62;0.00;0.00;0.62;5.83;1.57;;;22.60;29.30;;;;;;2253643;61;20380;-59
2021/12/18 04:19:49;0.00;0.00;0.62;0.00;0.00;0.62;1.90;1.40;;;22.60;29.40;;;;;;2254206;61;20359;-58
2021/12/18 04:22:34;0.00;0.00;0.62;0.00;0.00;0.62;1.93;1.30;;;22.60;29.40;;;;;;2253845;61;20360;-61
2021/12/18 04:25:19;0.00;0.00;0.62;0.00;0.00;0.62;1.90;1.30;;;22.60;29.40;;;;;;2253484;61;20380;-59
2021/12/18 04:28:04;0.00;0.00;0.62;0.00;0.00;0.62;1.53;1.17;;;22.60;29.40;;;;;;2253756;61;20414;-59
2021/12/18 04:30:49;0.00;0.00;0.62;0.00;0.00;0.62;2.10;1.47;;;22.50;29.30;;;;;;2253302;61;20360;-59
2021/12/18 04:33:34;0.00;0.00;0.62;0.00;0.00;0.62;2.40;1.67;;;22.50;29.30;;;;;;2253715;61;20367;-61
2021/12/18 04:36:21;0.00;0.00;0.62;0.00;0.00;0.62;1.70;1.17;;;22.50;29.30;;;;;;2253580;61;20468;-59
2021/12/18 04:39:06;0.00;0.00;0.62;0.00;0.00;0.62;2.70;1.53;;;22.50;29.30;;;;;;2253445;61;20367;-61
2021/12/18 04:41:57;0.00;0.00;0.62;0.00;0.00;0.62;2.17;1.70;;;22.50;29.30;;;;;;2253882;61;20724;-62
2021/12/18 04:44:41;0.00;0.00;0.62;0.00;0.00;0.62;1.87;1.40;;;22.50;29.30;;;;;;2253701;61;20379;-58
2021/12/18 04:47:26;0.00;0.00;0.62;0.00;0.00;0.62;2.27;1.77;;;22.50;29.30;;;;;;2253371;61;20432;-58
2021/12/18 04:50:11;0.00;0.00;0.62;0.00;0.00;0.62;1.87;1.60;;;22.50;29.30;;;;;;2253855;61;20607;-61
2021/12/18 04:52:56;0.00;0.00;0.62;0.00;0.00;0.62;2.00;1.40;;;22.50;29.30;;;;;;2253940;61;20363;-59
2021/12/18 04:55:41;0.00;0.00;0.62;0.00;0.00;0.62;2.53;1.70;;;22.50;29.30;;;;;;2253878;61;20464;-61
2021/12/18 04:58:25;0.00;0.00;0.62;0.00;0.00;0.62;2.03;1.50;;;22.40;29.30;;;;;;2253529;61;20728;-59
2021/12/18 05:01:11;0.00;0.00;0.62;0.00;0.00;0.62;2.07;1.60;;;22.40;29.20;;;;;;2253485;61;20376;-59
2021/12/18 05:03:55;0.00;0.00;0.62;0.00;0.00;0.62;2.07;1.53;;;22.40;29.20;;;;;;2254077;61;20387;-57
2021/12/18 05:06:44;0.00;0.00;0.62;0.00;0.00;0.62;3.13;1.80;;;22.40;29.20;;;;;;2253678;61;20422;-61
2021/12/18 05:09:30;0.00;0.00;0.62;0.00;0.00;0.62;2.60;1.87;;;22.40;29.20;;;;;;2253332;61;20356;-61
2021/12/18 05:12:15;0.00;0.00;0.62;0.00;0.00;0.62;1.90;1.40;;;22.40;29.20;;;;;;2253792;61;20615;-56
2021/12/18 05:14:59;0.00;0.00;0.62;0.00;0.00;0.62;2.60;1.90;;;22.40;29.30;;;;;;2253808;61;20399;-58
2021/12/18 05:17:44;0.00;0.00;0.62;0.00;0.00;0.62;2.20;1.57;;;22.40;29.30;;;;;;2254037;61;20383;-59
2021/12/18 05:20:28;0.00;0.00;0.62;0.00;0.00;0.62;2.10;1.57;;;22.40;29.30;;;;;;2253531;61;20740;-61
2021/12/18 05:23:13;0.00;0.00;0.62;0.00;0.00;0.62;2.90;1.67;;;22.40;29.30;;;;;;2253487;61;20452;-59
2021/12/18 05:25:59;0.00;0.00;0.62;0.00;0.00;0.62;2.63;1.83;;;22.40;29.30;;;;;;2254035;61;20376;-58
2021/12/18 05:28:44;0.00;0.00;0.62;0.00;0.00;0.62;2.63;1.70;;;22.40;29.30;;;;;;2253554;61;20372;-61
2021/12/18 05:31:29;0.00;0.00;0.62;0.00;0.00;0.62;1.93;1.57;;;22.30;29.30;;;;;;2253359;61;20604;-60
2021/12/18 05:34:21;0.00;0.00;0.62;0.00;0.00;0.62;1.90;1.50;;;22.30;29.30;;;;;;2253771;61;20625;-58
2021/12/18 05:37:17;0.00;0.00;0.62;0.00;0.00;0.62;4.27;1.70;;;22.30;29.30;;;;;;2253863;61;20384;-58
2021/12/18 05:40:02;0.00;0.00;0.62;0.00;0.00;0.62;2.40;1.50;;;22.30;29.30;;;;;;2253911;61;20375;-58
2021/12/18 05:42:50;0.00;0.00;0.62;0.00;0.00;0.62;2.27;1.70;;;22.30;29.40;;;;;;2253465;61;20399;-57
2021/12/18 05:45:35;0.00;0.00;0.62;0.00;0.00;0.62;2.13;1.63;;;22.30;29.40;;;;;;2253141;61;20472;-58
2021/12/18 05:48:20;0.00;0.00;0.62;0.00;0.00;0.62;1.73;1.50;;;22.30;29.40;;;;;;2254067;61;20692;-60
2021/12/18 05:51:05;0.00;0.00;0.62;0.00;0.00;0.62;2.27;2.00;;;22.30;29.40;;;;;;2253421;61;20383;-59
2021/12/18 05:53:50;0.00;0.00;0.62;0.00;0.00;0.62;2.40;1.70;;;22.30;29.40;;;;;;2253219;61;20359;-61
2021/12/18 05:56:35;0.00;0.00;0.62;0.00;0.00;0.62;2.10;1.50;;;22.30;29.40;;;;;;2253644;61;20408;-57
2021/12/18 05:59:21;0.00;0.00;0.62;0.00;0.00;0.62;1.60;1.30;;;22.20;29.30;;;;;;2253971;61;20643;-60
2021/12/18 06:02:05;0.00;0.00;0.62;0.00;0.00;0.62;2.20;1.83;;;22.20;29.30;;;;;;2253936;61;20380;-59
2021/12/18 06:04:50;0.00;0.00;0.62;0.00;0.00;0.62;2.10;1.67;;;22.20;29.30;;;;;;2253337;61;20407;-58
2021/12/18 06:10:38;0.00;0.00;0.62;0.00;0.00;0.62;2.60;1.73;;;22.20;29.30;;;;;;2253793;61;20383;-56
2021/12/18 06:13:23;0.00;0.00;0.62;0.00;0.00;0.62;3.23;2.03;;;22.20;29.30;;;;;;2253232;61;20590;-57
2021/12/18 06:16:09;0.00;0.00;0.62;0.00;0.00;0.62;3.07;2.03;;;22.10;29.20;;;;;;2253289;61;20387;-55
2021/12/18 06:18:54;0.00;0.00;0.62;0.00;0.00;0.62;2.50;1.93;;;22.10;29.20;;;;;;2253626;61;20906;-53
2021/12/18 06:21:39;0.00;0.00;0.62;0.00;0.00;0.62;2.37;1.60;;;22.10;29.30;;;;;;2253593;61;20384;-59
2021/12/18 06:24:26;0.00;0.00;0.62;0.00;0.00;0.62;2.33;1.40;;;22.10;29.30;;;;;;2253777;61;20428;-59
2021/12/18 06:27:11;0.00;0.00;0.62;0.00;0.00;0.62;2.10;1.40;;;22.10;29.30;;;;;;2253288;61;20356;-57
2021/12/18 06:29:55;0.00;0.00;0.62;0.00;0.00;0.62;3.23;2.10;;;22.10;29.30;;;;;;2253227;61;20431;-58
2021/12/18 06:32:42;0.00;0.00;0.62;0.00;0.00;0.62;2.87;2.07;;;22.00;29.20;;;;;;2253865;61;20398;-58
2021/12/18 06:35:27;0.00;0.00;0.62;0.00;0.00;0.62;3.10;1.67;;;22.00;29.20;;;;;;2253260;61;20411;-57
2021/12/18 06:38:11;0.00;0.00;0.62;0.00;0.00;0.62;2.07;1.60;;;22.00;29.20;;;;;;2253351;61;20347;-55
2021/12/18 06:40:56;0.00;0.00;0.62;0.00;0.00;0.62;2.20;1.50;;;22.00;29.30;;;;;;2253340;61;20467;-61
2021/12/18 06:43:40;0.00;0.00;0.62;0.00;0.00;0.62;2.87;1.90;;;22.00;29.30;;;;;;2253563;61;20724;-58
2021/12/18 06:46:24;0.00;0.00;0.62;0.00;0.00;0.62;2.10;1.70;;;22.00;29.30;;;;;;2253537;61;20388;-57
2021/12/18 06:49:11;0.00;0.00;0.62;0.00;0.00;0.62;1.73;1.20;;;22.00;29.30;;;;;;2253150;61;20360;-56
2021/12/18 06:51:55;0.00;0.00;0.62;0.00;0.00;0.62;1.97;1.40;;;22.00;29.30;;;;;;2253152;61;20458;-60
2021/12/18 06:54:40;0.00;0.00;0.62;0.00;0.00;0.62;1.77;1.27;;;21.90;29.20;;;;;;2253732;61;20439;-60
2021/12/18 06:57:24;0.00;0.00;0.62;0.00;0.00;0.62;2.17;1.57;;;21.90;29.20;;;;;;2253174;61;20394;-55
2021/12/18 07:00:13;0.00;0.00;0.62;0.00;0.00;0.62;1.87;1.37;;;21.90;29.20;;;;;;2253051;61;20358;-59
2021/12/18 07:02:58;0.00;0.00;0.62;0.00;0.00;0.62;2.87;1.70;;;21.90;29.20;;;;;;2253830;61;20480;-59
2021/12/18 07:05:44;0.00;0.00;0.62;0.00;0.00;0.62;2.10;1.43;;;21.80;29.10;;;;;;2253393;61;20771;-59
2021/12/18 07:08:29;0.00;0.00;0.62;0.00;0.00;0.62;2.77;1.63;;;21.80;29.20;;;;;;2253274;61;20602;-59
2021/12/18 07:11:14;0.00;0.00;0.62;0.00;0.00;0.62;2.53;1.63;;;21.80;29.20;;;;;;2253199;61;20391;-58
2021/12/18 07:13:58;0.00;0.00;0.62;0.00;0.00;0.62;2.40;1.47;;;21.80;29.20;;;;;;2252982;61;20359;-59
2021/12/18 07:16:43;0.00;0.00;0.62;0.00;0.00;0.62;1.80;1.30;;;21.80;29.20;;;;;;2253755;61;20395;-60
2021/12/18 07:19:27;0.00;0.00;0.62;0.00;0.00;0.62;2.23;1.40;;;21.80;29.20;;;;;;2253281;61;20399;-61
2021/12/18 07:22:13;0.00;0.00;0.62;0.00;0.00;0.62;2.43;1.40;;;21.70;29.20;;;;;;2253508;61;20468;-61
2021/12/18 07:24:58;0.00;0.00;0.62;0.00;0.00;0.62;1.80;1.37;;;21.70;29.20;;;;;;2254308;61;20495;-57
2021/12/18 07:27:43;0.00;0.00;0.62;0.00;0.00;0.62;2.57;1.33;;;21.70;29.20;;;;;;2254011;61;20374;-59
2021/12/18 07:30:28;0.00;0.00;0.62;0.00;0.00;0.62;2.07;1.30;;;21.70;29.20;;;;;;2253758;61;20678;-61
2021/12/18 07:33:13;0.00;0.00;0.62;0.00;0.00;0.62;1.80;1.20;;;21.70;29.30;;;;;;2254240;61;20366;-59
2021/12/18 07:35:58;0.00;0.00;0.62;0.00;0.00;0.62;1.53;1.10;;;21.70;29.30;;;;;;2253743;61;20418;-61
2021/12/18 07:38:44;0.00;0.00;0.62;0.00;0.00;0.62;1.80;1.33;;;21.70;29.30;;;;;;2254394;61;20367;-57
2021/12/18 07:41:28;0.00;0.00;0.62;0.00;0.00;0.62;2.03;1.53;;;21.70;29.30;;;;;;2253659;61;20406;-59
2021/12/18 07:44:13;0.00;0.00;0.62;0.00;0.00;0.62;2.03;1.30;;;21.70;29.30;;;;;;2253822;61;20360;-58
2021/12/18 07:46:57;0.00;0.00;0.62;0.00;0.00;0.62;2.60;2.10;;;21.70;29.30;;;;;;2254190;61;20368;-57
2021/12/18 07:49:42;0.00;0.00;0.62;0.00;0.00;0.62;1.83;1.47;;;21.60;29.30;;;;;;2253277;61;20363;-60
2021/12/18 07:52:27;0.00;0.00;0.62;0.00;0.00;0.62;1.83;1.33;;;21.60;29.30;;;;;;2253358;61;20428;-58
2021/12/18 07:55:13;0.00;0.00;0.62;0.00;0.00;0.62;2.00;1.43;;;21.60;29.30;;;;;;2253950;61;20379;-57
2021/12/18 07:57:59;0.00;0.00;0.62;0.00;0.00;0.62;1.87;1.20;;;21.60;29.30;;;;;;2253695;61;20507;-58
2021/12/18 08:00:43;0.00;0.00;0.62;0.00;0.00;0.62;1.80;1.20;;;21.60;29.30;;;;;;2254253;61;20363;-58
2021/12/18 08:03:29;0.00;0.00;0.62;0.00;0.00;0.62;5.07;1.43;;;21.60;29.30;;;;;;2253594;61;20400;-60
2021/12/18 08:06:14;0.00;0.00;0.62;0.00;0.00;0.62;2.40;1.50;;;21.60;29.30;;;;;;2253515;61;20738;-58
2021/12/18 08:08:59;0.00;0.00;0.62;0.00;0.00;0.62;2.20;1.40;;;21.50;29.30;;;;;;2254318;61;20415;-58
2021/12/18 08:11:45;0.00;0.00;0.62;0.00;0.00;0.62;2.33;1.40;;;21.50;29.30;;;;;;2253314;61;20355;-58
2021/12/18 08:14:30;0.00;0.00;0.62;0.00;0.00;0.62;2.10;1.40;;;21.50;29.30;;;;;;2253519;61;20694;-60
2021/12/18 08:17:15;0.00;0.00;0.62;0.00;0.00;0.62;2.37;1.30;;;21.50;29.30;;;;;;2253872;61;20455;-56
2021/12/18 08:20:00;0.00;0.00;0.62;0.00;0.00;0.62;2.00;1.30;;;21.50;29.40;;;;;;2254000;61;20363;-57
2021/12/18 08:22:44;0.00;0.00;0.62;0.00;0.00;0.62;2.73;1.50;;;21.50;29.40;;;;;;2254214;61;20403;-58
2021/12/18 08:25:30;0.00;0.00;0.62;0.00;0.00;0.62;2.20;1.40;;;21.50;29.40;;;;;;2253468;61;20431;-59
2021/12/18 08:28:16;0.00;0.00;0.62;0.00;0.00;0.62;3.67;1.27;;;21.50;30.00;;;;;;2253605;61;20359;-62
2021/12/18 08:31:01;0.00;0.00;0.62;0.00;0.00;0.62;3.97;1.70;;;21.50;29.50;;;;;;2253630;61;20367;-57
2021/12/18 08:33:46;0.00;0.00;0.62;0.00;0.00;0.62;2.10;1.50;;;21.50;29.50;;;;;;2253091;61;20404;-57
2021/12/18 08:36:31;0.00;0.00;0.62;0.00;0.00;0.62;1.70;1.27;;;21.50;29.50;;;;;;2253501;61;20388;-58
2021/12/18 08:39:17;0.00;0.00;0.62;0.00;0.00;0.62;2.73;1.60;;;21.60;29.60;;;;;;2254160;61;20360;-61
2021/12/18 08:42:04;0.00;0.00;0.62;0.00;0.00;0.62;2.97;1.60;;;21.60;29.60;;;;;;2253925;61;20364;-56
2021/12/18 08:44:50;0.00;0.00;0.62;0.00;0.00;0.62;2.23;1.30;;;21.50;29.50;;;;;;2253823;61;20379;-60
2021/12/18 08:47:34;0.00;0.00;0.62;0.00;0.00;0.62;1.87;1.43;;;21.60;29.60;;;;;;2253690;61;20468;-59
2021/12/18 08:50:21;0.00;0.00;0.62;0.00;0.00;0.62;2.13;1.50;;;21.60;29.60;;;;;;2253479;61;20356;-60
2021/12/18 08:53:06;0.00;0.00;0.62;0.00;0.00;0.62;2.30;1.50;;;21.60;29.70;;;;;;2253819;61;20740;-59
2021/12/18 08:55:50;0.00;0.00;0.62;0.00;0.00;0.62;1.97;1.27;;;21.60;29.70;;;;;;2253527;61;20411;-61
2021/12/18 08:58:35;0.00;0.00;0.62;0.00;0.00;0.62;2.30;1.30;;;21.60;29.70;;;;;;2253544;61;20424;-56
2021/12/18 09:01:23;0.00;0.00;0.62;0.00;0.00;0.62;1.60;1.20;;;21.60;29.70;;;;;;2254126;61;20356;-58
2021/12/18 09:04:08;0.00;0.00;0.62;0.00;0.00;0.62;1.80;1.20;;;21.60;29.70;;;;;;2253382;61;20368;-59
2021/12/18 09:06:53;0.00;0.00;0.62;0.00;0.00;0.62;1.83;1.20;;;21.60;29.70;;;;;;2253481;61;20356;-60
2021/12/18 09:09:39;0.00;0.00;0.62;0.00;0.00;0.62;2.20;1.30;;;21.60;29.70;;;;;;2253662;61;20599;-58
2021/12/18 09:12:25;0.00;0.00;0.62;0.00;0.00;0.62;1.90;1.30;;;21.60;29.70;;;;;;2253418;61;20415;-58
2021/12/18 09:15:11;0.00;0.00;0.62;0.00;0.00;0.62;2.83;1.60;;;21.60;29.70;;;;;;2253530;61;20383;-58
2021/12/18 09:17:57;0.00;0.00;0.62;0.00;0.00;0.62;1.73;1.30;;;21.50;29.50;;;;;;2253095;61;20423;-58
2021/12/18 09:20:44;0.00;0.00;0.62;0.00;0.00;0.62;1.90;1.40;;;21.50;29.40;;;;;;2253396;61;20372;-60
2021/12/18 09:23:29;0.00;0.00;0.62;0.00;0.00;0.62;1.93;1.17;;;21.50;29.30;;;;;;2253958;61;20356;-58
2021/12/18 09:26:14;0.00;0.00;0.62;0.00;0.00;0.62;3.03;1.90;;;21.40;29.20;;;;;;2253673;61;20791;-60
2021/12/18 09:28:58;0.00;0.00;0.62;0.00;0.00;0.62;2.33;1.57;;;21.40;29.20;;;;;;2253398;61;20359;-57
2021/12/18 09:31:43;0.00;0.00;0.62;0.00;0.00;0.62;2.47;1.40;;;21.40;29.20;;;;;;2253585;61;20732;-58
2021/12/18 09:34:30;0.00;0.00;0.62;0.00;0.00;0.62;2.40;1.60;;;21.30;29.20;;;;;;2253291;61;20355;-59
2021/12/18 09:37:14;0.00;0.00;0.62;0.00;0.00;0.62;2.40;1.63;;;21.30;29.20;;;;;;2254017;61;20388;-60
2021/12/18 09:39:59;0.00;0.00;0.62;0.00;0.00;0.62;2.10;1.70;;;21.20;29.10;;;;;;2253228;61;20728;-57
2021/12/18 09:42:44;0.00;0.00;0.62;0.00;0.00;0.62;2.20;1.37;;;21.20;29.10;;;;;;2253517;61;20403;-59
2021/12/18 09:45:29;0.00;0.00;0.62;0.00;0.00;0.62;1.63;1.17;;;21.20;29.20;;;;;;2253613;61;20400;-57
2021/12/18 09:48:14;0.00;0.00;0.62;0.00;0.00;0.62;1.80;1.20;;;21.20;29.30;;;;;;2253415;61;20360;-60
2021/12/18 09:51:06;0.00;0.00;0.62;0.00;0.00;0.62;3.37;1.40;;;21.20;29.40;;;;;;2253423;61;20360;-61
2021/12/18 09:53:52;0.00;0.00;0.62;0.00;0.00;0.62;2.00;1.20;;;21.20;29.50;;;;;;2253444;61;20367;-60
2021/12/18 09:56:38;0.00;0.00;0.62;0.00;0.00;0.62;2.17;1.07;;;21.20;29.60;;;;;;2253337;61;20464;-60
2021/12/18 09:59:23;0.00;0.00;0.62;0.00;0.00;0.62;1.67;1.00;;;21.20;29.70;;;;;;2253954;61;20383;-60
2021/12/18 10:02:08;0.00;0.00;0.62;0.00;0.00;0.62;1.60;1.00;;;21.20;29.70;;;;;;2253225;61;20767;-59
2021/12/18 10:04:53;0.00;0.00;0.62;0.00;0.00;0.62;2.33;1.00;;;21.30;29.70;;;;;;2253189;61;20387;-59
2021/12/18 10:07:38;0.00;0.00;0.62;0.00;0.00;0.62;2.43;1.10;;;21.30;29.70;;;;;;2253769;61;20387;-60
2021/12/18 10:10:23;0.00;0.00;0.62;0.00;0.00;0.62;2.60;0.80;;;21.30;29.70;;;;;;2253407;61;20375;-59
2021/12/18 10:13:10;0.00;0.00;0.62;0.00;0.00;0.62;1.60;0.90;;;21.30;29.70;;;;;;2253373;61;20356;-60
2021/12/18 10:16:09;0.00;0.00;0.62;0.00;0.00;0.62;1.60;0.83;;;21.40;29.80;;;;;;2253578;61;20396;-59
2021/12/18 10:18:54;0.00;0.00;0.62;0.00;0.00;0.62;3.37;1.17;;;21.40;29.70;;;;;;2253368;61;20670;-59
2021/12/18 10:21:39;0.00;0.00;0.62;0.00;0.00;0.62;1.87;1.10;;;21.40;29.70;;;;;;2253625;61;20387;-60
2021/12/18 10:24:26;0.00;0.00;0.62;0.00;0.00;0.62;1.53;1.07;;;21.40;29.70;;;;;;2253200;61;20388;-59
2021/12/18 10:27:20;0.00;0.00;0.62;0.00;0.00;0.62;1.40;0.90;;;21.40;29.70;;;;;;2253201;61;20360;-60
2021/12/18 10:30:16;0.00;0.00;0.62;0.00;0.00;0.62;2.47;0.80;;;21.40;29.70;;;;;;2253696;61;20387;-60
2021/12/18 10:33:05;0.00;0.00;0.62;0.00;0.00;0.62;1.30;0.80;;;21.50;29.70;;;;;;2253704;61;20360;-58
2021/12/18 10:35:55;0.00;0.00;0.62;0.00;0.00;0.62;1.40;0.80;;;21.50;29.70;;;;;;2253667;61;20380;-60
2021/12/18 10:38:48;0.00;0.00;0.62;0.00;0.00;0.62;1.37;0.77;;;21.50;29.70;;;;;;2253384;61;20359;-59
2021/12/18 10:41:35;0.00;0.00;0.62;0.00;0.00;0.62;1.50;1.00;;;21.50;29.60;;;;;;2253054;61;20375;-58
2021/12/18 10:44:20;0.00;0.00;0.62;0.00;0.00;0.62;2.10;0.73;;;21.50;29.60;;;;;;2253722;61;20423;-60
2021/12/18 10:47:05;0.00;0.00;0.62;0.00;0.00;0.62;1.40;0.90;;;21.50;29.60;;;;;;2253287;61;20424;-60
2021/12/18 10:49:49;0.00;0.00;0.62;0.00;0.00;0.62;1.83;1.20;;;21.60;29.70;;;;;;2253027;61;20355;-61
2021/12/18 10:52:38;0.00;0.00;0.62;0.00;0.00;0.62;1.40;1.00;;;21.60;29.60;;;;;;2253548;61;20573;-60
2021/12/18 10:55:34;0.00;0.00;0.62;0.00;0.00;0.62;1.30;0.90;;;21.60;29.60;;;;;;2253510;61;20722;-60
2021/12/18 10:58:26;0.00;0.00;0.62;0.00;0.00;0.62;1.60;1.00;;;21.60;29.60;;;;;;2254440;61;20387;-60
2021/12/18 11:01:12;0.00;0.00;0.62;0.00;0.00;0.62;1.47;0.80;;;21.60;29.50;;;;;;2253888;61;20571;-60
2021/12/18 11:03:57;0.00;0.00;0.62;0.00;0.00;0.62;1.30;0.97;;;21.60;29.50;;;;;;2253645;61;20591;-58
2021/12/18 11:06:41;0.00;0.00;0.62;0.00;0.00;0.62;1.30;0.70;;;21.70;29.60;;;;;;2254492;61;20379;-61
2021/12/18 11:09:31;0.00;0.00;0.62;0.00;0.00;0.62;1.40;0.70;;;21.70;29.60;;;;;;2253881;61;20592;-60
2021/12/18 11:15:21;0.00;0.00;0.62;0.00;0.00;0.62;1.30;0.70;;;21.70;29.60;;;;;;2254102;61;20438;-56
2021/12/18 11:18:09;0.00;0.00;0.62;0.00;0.00;0.62;1.50;0.80;;;21.70;29.60;;;;;;2253794;61;20458;-60
2021/12/18 11:20:53;0.00;0.00;0.62;0.00;0.00;0.62;1.47;0.97;;;21.70;29.50;;;;;;2254445;61;20390;-59
2021/12/18 11:23:47;0.00;0.00;0.62;0.00;0.00;0.62;1.30;0.70;;;21.70;29.50;;;;;;2253648;61;20420;-59
2021/12/18 11:26:36;0.00;0.00;0.62;0.00;0.00;0.62;1.40;0.80;;;21.70;29.50;;;;;;2253765;61;20415;-59
2021/12/18 11:29:23;0.00;0.00;0.62;0.00;0.00;0.62;1.20;0.70;;;21.70;29.50;;;;;;2254499;61;20723;-59
2021/12/18 11:32:13;0.00;0.00;0.62;0.00;0.00;0.62;1.43;0.80;;;21.70;29.50;;;;;;2254093;61;20359;-57
2021/12/18 11:35:04;0.00;0.00;0.62;0.00;0.00;0.62;1.40;0.70;;;21.70;29.40;;;;;;2253964;61;20387;-58
2021/12/18 11:37:53;0.00;0.00;0.62;0.00;0.00;0.62;1.30;0.90;;;21.70;29.40;;;;;;2253716;61;20395;-58